San Fidel, NM (87049)

7:49 AM MDT on July 30, 2014 (GMT -0600)
Old Laguna Sub (KNMNEWME2) Elev 5820 ft | 35.05 °N, 107.37 °W | Change Station

Current weather conditions updated 1 minute ago

Scattered Clouds
Scattered Clouds
65.1 °F
Feels Like 65.1 °F
N
1.1
Wind Variable Wind from ENE
Gusts 3.4 mph

Today is forecast to be nearly the same temperature as yesterday. Scattered thunderstorms possible tonight.

Today
High -- | Low -- °F
--% Chance of Precip.
Yesterday
High -- | Low -- °F
Precip. -- in
6:18 AM 8:15 PM
Waxing Crescent, 11% visible
Pressure 30.24 in
Visibility 10.0 miles
Clouds Scattered Clouds 10000 ft
Dew Point 60 °F
Humidity 82%
Rainfall 0.00 in
Snow Depth Not available.
UV 0 out of 12
Pollen 4.60 out of 12
Air Quality Not available.
Flu Activity Not available.
METAR KAEG 301247Z 27006KT 10SM SCT100 17/15 A3024

More Conditions Fewer Conditions

Pressure 30.24 in
Visibility 10.0 miles
Clouds Scattered Clouds 10000 ft
Dew Point 60 °F
Humidity 82%
Rainfall 0.00 in
Snow Depth Not available.
UV 0 out of 12
Pollen 4.60 out of 12
Air Quality Not available.
Flu Activity Not available.
METAR KAEG 301247Z 27006KT 10SM SCT100 17/15 A3024

More Conditions Fewer Conditions

10-Day Weather Forecast

Almanac

Astronomy

Jul. 30, 2014 Rise Set
Actual Time 6:18 AM MDT 8:15 PM MDT
Civil Twilight 5:50 AM MDT 8:42 PM MDT
Nautical Twilight 5:16 AM MDT 9:16 PM MDT
Astronomical Twilight 4:39 AM MDT 9:53 PM MDT
Moon 9:42 AM MDT 10:10 PM MDT
Length of Visible Light 14h 52m
Length of Day
13h 56m
Tomorrow will be 1m 36s shorter.
Waxing Crescent, 11% of the Moon is Illuminated
Today
Waxing Crescent
Aug 3
First Quarter
Aug 10
Full
Aug 17
Last Quarter
Aug 25
New

Today's Extremes

State Highs State Lows

Community

WunderPhotos

Upload Photos

1,739,080 photos uploaded!

Nearby

Snow Depth

Station Depth Elevation
Santa Fe 0 in 11445 ft
Elk Cabin 109 in 8210 ft
Bateman 0 in 9300 ft
Wesner Springs 3 in 11120 ft
Silver Creek Divide 1 in 9000 ft

Earthquake Activity

City Distance Mag. Time & Date
No recent earthquake activity has been reported nearby.
Minimum magnitude displayed is 2.5.

Coastal Water Temperatures

Place Temperature
No Stations Reporting

Nearby Weather Stations

Station Location Temp. Dew Point Humidity Wind Precip. Elev Updated Type
RAWS LAGUNA NM, Laguna, NM 63 °F 60 °F 89% NNW  at  1 mph 0.00 in / hr 5805 ft 6:33 AM MDT MADIS
Old Laguna Sub, New Mexico, NM 65.1 °F 60 °F 82% ENE  at  1.1 mph 0.00 in / hr 5820 ft 7:48 AM MDT Normal
MAP GRANTS (P107) NM , San Rafael, NM 64 °F 51 °F 62% West  at  2 mph 0.00 in / hr 6535 ft 5:00 AM MDT MADIS

Show More Stations Show Fewer Stations